createdAt,value
2018-11-22T00:03:59.925Z,4.13
2018-11-22T00:09:20.295Z,4.08
2018-11-22T00:14:28.002Z,4.02
2018-11-22T00:20:07.903Z,4.12
2018-11-22T00:25:14.356Z,4.08
2018-11-22T00:30:21.034Z,4.25
2018-11-22T00:35:26.290Z,4.22
2018-11-22T00:40:32.620Z,4.18
2018-11-22T00:45:42.987Z,4.19
2018-11-22T00:50:53.835Z,4.15
2018-11-22T00:56:01.676Z,4.32
2018-11-22T01:01:12.769Z,4.25
2018-11-22T01:06:21.052Z,4.32
2018-11-22T01:11:31.632Z,4.26
2018-11-22T01:17:26.310Z,4.27
2018-11-22T01:23:01.915Z,4.34
2018-11-22T01:28:54.566Z,4.20
2018-11-22T01:34:04.011Z,4.20
2018-11-22T01:45:20.953Z,4.26
2018-11-22T01:50:30.832Z,4.30
2018-11-22T01:55:37.436Z,4.21
2018-11-22T02:00:44.880Z,4.22
2018-11-22T02:05:50.758Z,4.22
2018-11-22T02:10:57.593Z,4.23
2018-11-22T02:16:02.424Z,4.35
2018-11-22T02:21:07.484Z,4.31
2018-11-22T02:26:12.727Z,4.25
2018-11-22T02:32:25.082Z,4.18
2018-11-22T02:37:57.008Z,4.08
2018-11-22T02:43:03.429Z,4.22
2018-11-22T02:48:10.504Z,4.39
2018-11-22T02:53:24.961Z,4.25
2018-11-22T02:58:35.245Z,4.31
2018-11-22T03:03:48.022Z,4.23
2018-11-22T03:08:52.152Z,4.17
2018-11-22T03:14:03.910Z,4.16
2018-11-22T03:19:23.443Z,4.10
2018-11-22T03:24:33.740Z,4.14
2018-11-22T03:29:47.611Z,4.25
2018-11-22T03:34:59.992Z,4.24
2018-11-22T03:40:30.286Z,4.27
2018-11-22T03:45:59.128Z,4.20
2018-11-22T03:51:01.544Z,4.17
2018-11-22T03:56:06.332Z,4.24
2018-11-22T04:01:10.950Z,4.33
2018-11-22T04:06:15.183Z,4.34
2018-11-22T04:11:22.529Z,4.36
2018-11-22T04:16:47.377Z,4.41
2018-11-22T04:21:53.544Z,4.44
2018-11-22T04:27:01.148Z,4.45
2018-11-22T04:32:06.719Z,4.43
2018-11-22T04:37:08.497Z,4.37
2018-11-22T04:42:13.527Z,4.44
2018-11-22T04:47:15.940Z,4.48
2018-11-22T04:52:19.767Z,4.44
2018-11-22T04:57:23.562Z,4.32
2018-11-22T05:02:27.348Z,4.37
2018-11-22T05:07:31.027Z,4.36
2018-11-22T05:12:34.818Z,4.35
2018-11-22T05:17:38.508Z,4.35
2018-11-22T05:22:42.381Z,4.41
2018-11-22T05:27:46.100Z,4.41
2018-11-22T05:32:49.733Z,4.35
2018-11-22T05:37:53.748Z,4.38
2018-11-22T05:42:57.788Z,4.35
2018-11-22T05:48:01.529Z,4.34
2018-11-22T05:53:05.465Z,4.37
2018-11-22T05:58:09.136Z,4.21
2018-11-22T06:03:13.076Z,4.27
2018-11-22T06:08:16.879Z,4.24
2018-11-22T06:13:20.584Z,4.24
2018-11-22T06:18:24.296Z,4.35
2018-11-22T06:23:28.002Z,4.23
2018-11-22T06:28:31.734Z,4.35
2018-11-22T06:33:35.517Z,4.41
2018-11-22T06:38:39.212Z,4.35
2018-11-22T06:43:42.811Z,4.47
2018-11-22T06:48:46.534Z,4.50
2018-11-22T06:53:50.233Z,4.43
2018-11-22T06:58:53.886Z,4.42
2018-11-22T07:03:57.532Z,4.47
2018-11-22T07:09:03.337Z,4.51
2018-11-22T07:14:05.392Z,4.51
2018-11-22T07:19:10.540Z,4.61
2018-11-22T07:24:13.030Z,4.51
2018-11-22T07:29:16.717Z,4.61
2018-11-22T07:34:22.711Z,4.66
2018-11-22T07:39:26.382Z,4.69
2018-11-22T07:44:30.089Z,4.74
2018-11-22T07:49:33.794Z,4.73
2018-11-22T07:54:37.486Z,4.68
2018-11-22T07:59:41.274Z,4.57
2018-11-22T08:04:46.919Z,4.64
2018-11-22T08:09:48.613Z,4.68
2018-11-22T08:14:53.700Z,4.80
2018-11-22T08:19:55.990Z,4.89
2018-11-22T08:24:59.627Z,4.88
2018-11-22T08:30:08.386Z,4.87
2018-11-22T08:35:11.337Z,4.90
2018-11-22T08:40:22.101Z,4.97
2018-11-22T08:45:26.349Z,4.96
2018-11-22T08:50:30.787Z,4.96
2018-11-22T08:55:34.495Z,4.95
2018-11-22T09:00:38.727Z,5.07
2018-11-22T09:05:42.511Z,5.02
2018-11-22T09:10:48.752Z,5.08
2018-11-22T09:15:52.430Z,5.14
2018-11-22T09:20:56.297Z,5.13
2018-11-22T09:26:00.284Z,5.17
2018-11-22T09:31:03.888Z,5.17
2018-11-22T09:36:07.837Z,5.17
2018-11-22T09:41:12.648Z,5.25
2018-11-22T09:46:16.554Z,5.26
2018-11-22T09:51:20.364Z,5.32
2018-11-22T09:56:22.966Z,5.32
2018-11-22T10:01:30.149Z,5.40
2018-11-22T10:06:41.469Z,5.42
2018-11-22T10:11:47.120Z,5.43
2018-11-22T10:16:51.239Z,5.34
2018-11-22T10:21:57.436Z,5.39
2018-11-22T10:26:59.036Z,5.38
2018-11-22T10:32:02.844Z,5.39
2018-11-22T10:37:10.034Z,5.44
2018-11-22T10:42:16.798Z,5.38
2018-11-22T10:47:20.766Z,5.47
2018-11-22T10:52:23.347Z,5.60
2018-11-22T10:57:53.837Z,5.62
2018-11-22T11:03:55.820Z,5.71
2018-11-22T11:09:00.422Z,5.71
2018-11-22T11:14:04.311Z,5.73
2018-11-22T11:19:54.050Z,5.79
2018-11-22T11:25:20.076Z,5.77
2018-11-22T11:30:28.231Z,5.74
2018-11-22T11:36:09.608Z,5.77
2018-11-22T11:41:38.781Z,5.74
2018-11-22T11:46:54.687Z,5.73
2018-11-22T11:52:12.658Z,5.76
2018-11-22T11:57:37.162Z,5.67
2018-11-22T12:02:41.001Z,5.54
2018-11-22T12:07:43.960Z,5.49
2018-11-22T12:12:50.118Z,5.61
2018-11-22T12:18:05.648Z,5.61
2018-11-22T12:23:07.220Z,5.67
2018-11-22T12:28:10.991Z,5.66
2018-11-22T12:33:23.683Z,5.67
2018-11-22T12:38:37.585Z,5.64
2018-11-22T12:43:39.388Z,5.58
2018-11-22T12:48:43.476Z,5.65
2018-11-22T12:53:49.175Z,5.63
2018-11-22T12:58:52.948Z,5.53
2018-11-22T13:03:54.922Z,5.67
2018-11-22T13:08:58.693Z,5.58
2018-11-22T13:14:02.635Z,5.53
2018-11-22T13:19:06.665Z,5.54
2018-11-22T13:24:12.569Z,5.58
2018-11-22T13:29:14.306Z,5.70
2018-11-22T13:34:18.135Z,5.60
2018-11-22T13:39:22.042Z,5.63
2018-11-22T13:44:27.023Z,5.53
2018-11-22T13:49:29.508Z,5.61
2018-11-22T13:54:33.353Z,5.69
2018-11-22T13:59:39.184Z,5.73
2018-11-22T14:04:40.853Z,5.69
2018-11-22T14:09:44.614Z,5.63
2018-11-22T14:14:51.460Z,5.63
2018-11-22T14:19:55.467Z,5.62
2018-11-22T14:24:59.241Z,5.56
2018-11-22T14:30:07.525Z,5.57
2018-11-22T14:35:14.346Z,5.61
2018-11-22T14:40:23.346Z,5.52
2018-11-22T14:45:30.929Z,5.54
2018-11-22T14:50:48.968Z,5.56
2018-11-22T14:55:53.892Z,5.59
2018-11-22T15:00:57.610Z,5.54
2018-11-22T15:06:01.487Z,5.52
2018-11-22T15:11:06.652Z,5.49
2018-11-22T15:16:10.200Z,5.54
2018-11-22T15:21:12.796Z,5.44
2018-11-22T15:26:16.658Z,5.40
2018-11-22T15:31:20.452Z,5.48
2018-11-22T15:36:24.180Z,5.50
2018-11-22T15:41:28.622Z,5.51
2018-11-22T15:46:32.581Z,5.47
2018-11-22T15:51:36.712Z,5.47
2018-11-22T15:56:44.807Z,5.43
2018-11-22T16:01:46.255Z,5.44
2018-11-22T16:06:47.943Z,5.34
2018-11-22T16:11:51.560Z,5.43
2018-11-22T16:16:56.486Z,5.38
2018-11-22T16:22:01.741Z,5.43
2018-11-22T16:27:12.294Z,5.47
2018-11-22T16:32:16.034Z,5.50
2018-11-22T16:37:22.622Z,5.46
2018-11-22T16:42:22.029Z,5.51
2018-11-22T16:47:25.828Z,5.54
2018-11-22T16:52:29.446Z,5.51
2018-11-22T16:57:33.045Z,5.52
2018-11-22T17:02:37.991Z,5.57
2018-11-22T17:07:40.547Z,5.56
2018-11-22T17:12:46.042Z,5.57
2018-11-22T17:17:49.025Z,5.50
2018-11-22T17:22:53.192Z,5.53
2018-11-22T17:27:58.253Z,5.53
2018-11-22T17:33:03.033Z,5.49
2018-11-22T17:38:06.919Z,5.54
2018-11-22T17:43:10.473Z,5.49
2018-11-22T17:48:14.016Z,5.56
2018-11-22T17:53:17.475Z,5.54
2018-11-22T17:58:21.034Z,5.50
2018-11-22T18:03:24.490Z,5.43
2018-11-22T18:08:27.757Z,5.40
2018-11-22T18:13:31.195Z,5.52
2018-11-22T18:18:34.617Z,5.51
2018-11-22T18:23:38.123Z,5.52
2018-11-22T18:28:41.677Z,5.54
2018-11-22T18:33:45.240Z,5.57
2018-11-22T18:38:48.672Z,5.51
2018-11-22T18:43:52.060Z,5.58
2018-11-22T18:48:55.463Z,5.59
2018-11-22T18:53:59.029Z,5.50
2018-11-22T18:59:02.496Z,5.51
2018-11-22T19:04:06.010Z,5.44
2018-11-22T19:09:09.787Z,5.52
2018-11-22T19:14:15.840Z,5.49
2018-11-22T19:19:19.478Z,5.47
2018-11-22T19:24:22.974Z,5.53
2018-11-22T19:29:26.418Z,5.47
2018-11-22T19:34:29.902Z,5.44
2018-11-22T19:39:33.453Z,5.44
2018-11-22T19:44:37.012Z,5.49
2018-11-22T19:49:43.815Z,5.49
2018-11-22T19:54:48.242Z,5.53
2018-11-22T19:59:51.735Z,5.52
2018-11-22T20:04:55.346Z,5.30
2018-11-22T20:09:58.801Z,5.43
2018-11-22T20:15:02.532Z,5.49
2018-11-22T20:20:06.682Z,5.56
2018-11-22T20:25:10.095Z,5.55
2018-11-22T20:30:36.071Z,5.44
2018-11-22T20:35:39.590Z,5.46
2018-11-22T20:40:43.149Z,5.38
2018-11-22T20:45:46.691Z,5.40
2018-11-22T20:50:50.241Z,5.45
2018-11-22T20:55:53.908Z,5.42
2018-11-22T21:00:57.424Z,5.30
2018-11-22T21:06:01.011Z,5.23
2018-11-22T21:11:04.671Z,5.34
2018-11-22T21:16:13.621Z,5.32
2018-11-22T21:21:15.046Z,5.44
2018-11-22T21:26:21.472Z,5.42
2018-11-22T21:31:25.416Z,5.38
2018-11-22T21:36:29.259Z,5.41
2018-11-22T21:41:32.905Z,5.42
2018-11-22T21:46:38.684Z,5.48
2018-11-22T21:51:40.448Z,5.41
2018-11-22T21:56:44.217Z,5.41
2018-11-22T22:01:47.971Z,5.48
2018-11-22T22:06:51.756Z,5.53
2018-11-22T22:11:57.595Z,5.58
2018-11-22T22:16:59.398Z,5.56
2018-11-22T22:22:04.300Z,5.61
2018-11-22T22:27:06.912Z,5.60
2018-11-22T22:32:10.724Z,5.63
2018-11-22T22:37:14.480Z,5.62
2018-11-22T22:42:19.492Z,5.59
2018-11-22T22:47:23.341Z,5.67
2018-11-22T22:52:25.771Z,5.70
2018-11-22T22:57:30.550Z,5.71
2018-11-22T23:02:33.294Z,5.74
2018-11-22T23:07:37.065Z,5.69
2018-11-22T23:12:43.899Z,5.70
2018-11-22T23:17:48.713Z,5.65
2018-11-22T23:22:51.662Z,5.65
2018-11-22T23:27:55.511Z,5.64
2018-11-22T23:34:05.558Z,5.61
2018-11-22T23:39:12.353Z,5.59
2018-11-22T23:44:17.337Z,5.62
2018-11-22T23:49:21.373Z,5.66
2018-11-22T23:54:26.859Z,5.57
2018-11-22T23:59:33.415Z,5.58
